sensor_id;sensor_type;location;lat;lon;timestamp;P1;P2;P0
47741;PMS5003;33504;52.066;6.096;2022-11-15T00:02:23;49;44;
47741;PMS5003;33504;52.066;6.096;2022-11-15T00:04:50;48;46;
47741;PMS5003;33504;52.066;6.096;2022-11-15T00:07:17;49;46;
47741;PMS5003;33504;52.066;6.096;2022-11-15T00:09:45;50;49;
47741;PMS5003;33504;52.066;6.096;2022-11-15T00:12:12;56;51;
47741;PMS5003;33504;52.066;6.096;2022-11-15T00:14:39;49;46;
47741;PMS5003;33504;52.066;6.096;2022-11-15T00:17:06;44;44;
47741;PMS5003;33504;52.066;6.096;2022-11-15T00:19:33;54;51;
47741;PMS5003;33504;52.066;6.096;2022-11-15T00:22:01;55;51;
47741;PMS5003;33504;52.066;6.096;2022-11-15T00:24:28;59;50;
47741;PMS5003;33504;52.066;6.096;2022-11-15T00:26:54;50;47;
47741;PMS5003;33504;52.066;6.096;2022-11-15T00:29:22;57;53;
47741;PMS5003;33504;52.066;6.096;2022-11-15T00:31:48;50;47;
47741;PMS5003;33504;52.066;6.096;2022-11-15T00:34:15;56;51;
47741;PMS5003;33504;52.066;6.096;2022-11-15T00:36:43;54;53;
47741;PMS5003;33504;52.066;6.096;2022-11-15T00:39:10;61;54;
47741;PMS5003;33504;52.066;6.096;2022-11-15T00:41:37;59;55;
47741;PMS5003;33504;52.066;6.096;2022-11-15T00:44:04;47;45;
47741;PMS5003;33504;52.066;6.096;2022-11-15T00:46:31;45;42;
47741;PMS5003;33504;52.066;6.096;2022-11-15T00:48:58;45;44;
47741;PMS5003;33504;52.066;6.096;2022-11-15T00:51:25;52;50;
47741;PMS5003;33504;52.066;6.096;2022-11-15T00:53:52;47;43;
47741;PMS5003;33504;52.066;6.096;2022-11-15T00:56:20;48;41;
47741;PMS5003;33504;52.066;6.096;2022-11-15T00:58:46;42;42;
47741;PMS5003;33504;52.066;6.096;2022-11-15T01:01:14;50;48;
47741;PMS5003;33504;52.066;6.096;2022-11-15T01:03:41;61;54;
47741;PMS5003;33504;52.066;6.096;2022-11-15T01:06:09;47;45;
47741;PMS5003;33504;52.066;6.096;2022-11-15T01:08:37;55;53;
47741;PMS5003;33504;52.066;6.096;2022-11-15T01:11:06;46;44;
47741;PMS5003;33504;52.066;6.096;2022-11-15T01:13:34;62;61;
47741;PMS5003;33504;52.066;6.096;2022-11-15T01:16:07;51;48;
47741;PMS5003;33504;52.066;6.096;2022-11-15T01:18:35;48;46;
47741;PMS5003;33504;52.066;6.096;2022-11-15T01:21:07;56;49;
47741;PMS5003;33504;52.066;6.096;2022-11-15T01:23:35;47;43;
47741;PMS5003;33504;52.066;6.096;2022-11-15T01:26:03;50;48;
47741;PMS5003;33504;52.066;6.096;2022-11-15T01:28:32;46;45;
47741;PMS5003;33504;52.066;6.096;2022-11-15T01:31:00;51;46;
47741;PMS5003;33504;52.066;6.096;2022-11-15T01:33:29;55;53;
47741;PMS5003;33504;52.066;6.096;2022-11-15T01:35:56;47;45;
47741;PMS5003;33504;52.066;6.096;2022-11-15T01:38:24;65;61;
47741;PMS5003;33504;52.066;6.096;2022-11-15T01:40:51;47;45;
47741;PMS5003;33504;52.066;6.096;2022-11-15T01:43:19;51;47;
47741;PMS5003;33504;52.066;6.096;2022-11-15T01:45:49;50;49;
47741;PMS5003;33504;52.066;6.096;2022-11-15T01:48:20;50;48;
47741;PMS5003;33504;52.066;6.096;2022-11-15T01:50:48;49;48;
47741;PMS5003;33504;52.066;6.096;2022-11-15T01:53:15;62;57;
47741;PMS5003;33504;52.066;6.096;2022-11-15T01:55:45;68;62;
47741;PMS5003;33504;52.066;6.096;2022-11-15T01:58:13;54;47;
47741;PMS5003;33504;52.066;6.096;2022-11-15T02:00:40;62;59;
47741;PMS5003;33504;52.066;6.096;2022-11-15T02:03:07;67;63;
47741;PMS5003;33504;52.066;6.096;2022-11-15T02:05:34;64;61;
47741;PMS5003;33504;52.066;6.096;2022-11-15T02:08:04;60;57;
47741;PMS5003;33504;52.066;6.096;2022-11-15T02:10:32;61;58;
47741;PMS5003;33504;52.066;6.096;2022-11-15T02:13:00;50;47;
47741;PMS5003;33504;52.066;6.096;2022-11-15T02:15:30;51;48;
47741;PMS5003;33504;52.066;6.096;2022-11-15T02:18:07;46;44;
47741;PMS5003;33504;52.066;6.096;2022-11-15T02:20:42;54;52;
47741;PMS5003;33504;52.066;6.096;2022-11-15T02:23:55;58;56;
47741;PMS5003;33504;52.066;6.096;2022-11-15T02:26:41;50;48;
47741;PMS5003;33504;52.066;6.096;2022-11-15T02:29:41;44;43;
47741;PMS5003;33504;52.066;6.096;2022-11-15T02:32:25;51;48;
47741;PMS5003;33504;52.066;6.096;2022-11-15T02:35:02;52;49;
47741;PMS5003;33504;52.066;6.096;2022-11-15T02:37:37;53;51;
47741;PMS5003;33504;52.066;6.096;2022-11-15T02:40:11;51;44;
47741;PMS5003;33504;52.066;6.096;2022-11-15T02:42:48;50;47;
47741;PMS5003;33504;52.066;6.096;2022-11-15T02:45:21;50;45;
47741;PMS5003;33504;52.066;6.096;2022-11-15T02:47:54;49;48;
47741;PMS5003;33504;52.066;6.096;2022-11-15T02:50:25;45;43;
47741;PMS5003;33504;52.066;6.096;2022-11-15T02:52:54;48;44;
47741;PMS5003;33504;52.066;6.096;2022-11-15T02:55:26;50;49;
47741;PMS5003;33504;52.066;6.096;2022-11-15T02:57:59;49;46;
47741;PMS5003;33504;52.066;6.096;2022-11-15T03:00:40;43;42;
47741;PMS5003;33504;52.066;6.096;2022-11-15T03:03:29;45;42;
47741;PMS5003;33504;52.066;6.096;2022-11-15T03:06:11;48;47;
47741;PMS5003;33504;52.066;6.096;2022-11-15T03:08:50;47;46;
47741;PMS5003;33504;52.066;6.096;2022-11-15T03:11:24;46;44;
47741;PMS5003;33504;52.066;6.096;2022-11-15T03:13:54;46;45;
47741;PMS5003;33504;52.066;6.096;2022-11-15T03:16:26;46;42;
47741;PMS5003;33504;52.066;6.096;2022-11-15T03:18:57;44;42;
47741;PMS5003;33504;52.066;6.096;2022-11-15T03:21:29;42;40;
47741;PMS5003;33504;52.066;6.096;2022-11-15T03:23:58;42;40;
47741;PMS5003;33504;52.066;6.096;2022-11-15T03:26:30;43;39;
47741;PMS5003;33504;52.066;6.096;2022-11-15T03:29:00;43;41;
47741;PMS5003;33504;52.066;6.096;2022-11-15T03:31:32;48;45;
47741;PMS5003;33504;52.066;6.096;2022-11-15T03:34:02;43;42;
47741;PMS5003;33504;52.066;6.096;2022-11-15T03:36:33;47;45;
47741;PMS5003;33504;52.066;6.096;2022-11-15T03:39:04;44;44;
47741;PMS5003;33504;52.066;6.096;2022-11-15T03:41:35;48;43;
47741;PMS5003;33504;52.066;6.096;2022-11-15T03:44:08;45;41;
47741;PMS5003;33504;52.066;6.096;2022-11-15T03:46:42;42;40;
47741;PMS5003;33504;52.066;6.096;2022-11-15T03:49:15;49;48;
47741;PMS5003;33504;52.066;6.096;2022-11-15T03:51:47;47;45;
47741;PMS5003;33504;52.066;6.096;2022-11-15T03:54:14;45;45;
47741;PMS5003;33504;52.066;6.096;2022-11-15T03:56:41;49;45;
47741;PMS5003;33504;52.066;6.096;2022-11-15T03:59:08;47;43;
47741;PMS5003;33504;52.066;6.096;2022-11-15T04:01:35;40;40;
47741;PMS5003;33504;52.066;6.096;2022-11-15T04:04:02;48;45;
47741;PMS5003;33504;52.066;6.096;2022-11-15T04:06:30;47;43;
47741;PMS5003;33504;52.066;6.096;2022-11-15T04:08:57;41;40;
47741;PMS5003;33504;52.066;6.096;2022-11-15T04:11:23;48;46;
47741;PMS5003;33504;52.066;6.096;2022-11-15T04:13:50;44;42;
47741;PMS5003;33504;52.066;6.096;2022-11-15T04:16:18;39;38;
47741;PMS5003;33504;52.066;6.096;2022-11-15T04:18:45;41;40;
47741;PMS5003;33504;52.066;6.096;2022-11-15T04:21:12;44;42;
47741;PMS5003;33504;52.066;6.096;2022-11-15T04:23:39;43;42;
47741;PMS5003;33504;52.066;6.096;2022-11-15T04:26:07;41;40;
47741;PMS5003;33504;52.066;6.096;2022-11-15T04:28:37;47;47;
47741;PMS5003;33504;52.066;6.096;2022-11-15T04:31:04;46;43;
47741;PMS5003;33504;52.066;6.096;2022-11-15T04:33:31;44;42;
47741;PMS5003;33504;52.066;6.096;2022-11-15T04:35:58;46;44;
47741;PMS5003;33504;52.066;6.096;2022-11-15T04:38:26;49;48;
47741;PMS5003;33504;52.066;6.096;2022-11-15T04:40:53;51;49;
47741;PMS5003;33504;52.066;6.096;2022-11-15T04:43:20;41;40;
47741;PMS5003;33504;52.066;6.096;2022-11-15T04:45:48;47;46;
47741;PMS5003;33504;52.066;6.096;2022-11-15T04:48:14;44;42;
47741;PMS5003;33504;52.066;6.096;2022-11-15T04:50:42;45;44;
47741;PMS5003;33504;52.066;6.096;2022-11-15T04:53:09;41;40;
47741;PMS5003;33504;52.066;6.096;2022-11-15T04:55:35;50;48;
47741;PMS5003;33504;52.066;6.096;2022-11-15T04:58:02;45;44;
47741;PMS5003;33504;52.066;6.096;2022-11-15T05:00:30;45;42;
47741;PMS5003;33504;52.066;6.096;2022-11-15T05:02:56;45;44;
47741;PMS5003;33504;52.066;6.096;2022-11-15T05:05:24;41;41;
47741;PMS5003;33504;52.066;6.096;2022-11-15T05:07:51;42;40;
47741;PMS5003;33504;52.066;6.096;2022-11-15T05:10:18;42;42;
47741;PMS5003;33504;52.066;6.096;2022-11-15T05:12:46;42;40;
47741;PMS5003;33504;52.066;6.096;2022-11-15T05:15:12;49;46;
47741;PMS5003;33504;52.066;6.096;2022-11-15T05:17:39;49;46;
47741;PMS5003;33504;52.066;6.096;2022-11-15T05:20:07;50;45;
47741;PMS5003;33504;52.066;6.096;2022-11-15T05:22:34;45;44;
47741;PMS5003;33504;52.066;6.096;2022-11-15T05:25:02;43;42;
47741;PMS5003;33504;52.066;6.096;2022-11-15T05:27:30;41;39;
47741;PMS5003;33504;52.066;6.096;2022-11-15T05:29:58;49;47;
47741;PMS5003;33504;52.066;6.096;2022-11-15T05:32:24;43;40;
47741;PMS5003;33504;52.066;6.096;2022-11-15T05:34:52;44;41;
47741;PMS5003;33504;52.066;6.096;2022-11-15T05:37:20;43;41;
47741;PMS5003;33504;52.066;6.096;2022-11-15T05:39:47;44;42;
47741;PMS5003;33504;52.066;6.096;2022-11-15T05:42:15;50;47;
47741;PMS5003;33504;52.066;6.096;2022-11-15T05:44:43;45;44;
47741;PMS5003;33504;52.066;6.096;2022-11-15T05:47:15;48;45;
47741;PMS5003;33504;52.066;6.096;2022-11-15T05:49:45;46;43;
47741;PMS5003;33504;52.066;6.096;2022-11-15T05:52:14;41;40;
47741;PMS5003;33504;52.066;6.096;2022-11-15T05:54:47;41;41;
47741;PMS5003;33504;52.066;6.096;2022-11-15T05:57:14;42;39;
47741;PMS5003;33504;52.066;6.096;2022-11-15T05:59:42;46;44;
47741;PMS5003;33504;52.066;6.096;2022-11-15T06:02:09;46;44;
47741;PMS5003;33504;52.066;6.096;2022-11-15T06:04:37;45;43;
47741;PMS5003;33504;52.066;6.096;2022-11-15T06:07:04;43;42;
47741;PMS5003;33504;52.066;6.096;2022-11-15T06:09:31;37;36;
47741;PMS5003;33504;52.066;6.096;2022-11-15T06:11:58;46;44;
47741;PMS5003;33504;52.066;6.096;2022-11-15T06:14:25;41;41;
47741;PMS5003;33504;52.066;6.096;2022-11-15T06:16:52;38;38;
47741;PMS5003;33504;52.066;6.096;2022-11-15T06:19:20;45;42;
47741;PMS5003;33504;52.066;6.096;2022-11-15T06:21:47;47;44;
47741;PMS5003;33504;52.066;6.096;2022-11-15T06:24:15;41;39;
47741;PMS5003;33504;52.066;6.096;2022-11-15T06:26:42;40;39;
47741;PMS5003;33504;52.066;6.096;2022-11-15T06:29:09;42;41;
47741;PMS5003;33504;52.066;6.096;2022-11-15T06:31:35;43;41;
47741;PMS5003;33504;52.066;6.096;2022-11-15T06:34:03;41;38;
47741;PMS5003;33504;52.066;6.096;2022-11-15T06:36:30;44;41;
47741;PMS5003;33504;52.066;6.096;2022-11-15T06:39:00;38;37;
47741;PMS5003;33504;52.066;6.096;2022-11-15T06:41:26;45;43;
47741;PMS5003;33504;52.066;6.096;2022-11-15T06:43:54;40;39;
47741;PMS5003;33504;52.066;6.096;2022-11-15T06:46:21;44;41;
47741;PMS5003;33504;52.066;6.096;2022-11-15T06:48:50;40;39;
47741;PMS5003;33504;52.066;6.096;2022-11-15T06:51:17;40;38;
47741;PMS5003;33504;52.066;6.096;2022-11-15T06:53:44;36;36;
47741;PMS5003;33504;52.066;6.096;2022-11-15T06:56:11;43;41;
47741;PMS5003;33504;52.066;6.096;2022-11-15T06:58:38;40;38;
47741;PMS5003;33504;52.066;6.096;2022-11-15T07:01:05;37;34;
47741;PMS5003;33504;52.066;6.096;2022-11-15T07:03:35;44;41;
47741;PMS5003;33504;52.066;6.096;2022-11-15T07:06:04;40;39;
47741;PMS5003;33504;52.066;6.096;2022-11-15T07:08:32;40;39;
47741;PMS5003;33504;52.066;6.096;2022-11-15T07:10:59;42;41;
47741;PMS5003;33504;52.066;6.096;2022-11-15T07:13:28;41;38;
47741;PMS5003;33504;52.066;6.096;2022-11-15T07:15:56;43;42;
47741;PMS5003;33504;52.066;6.096;2022-11-15T07:18:23;41;39;
47741;PMS5003;33504;52.066;6.096;2022-11-15T07:20:50;36;35;
47741;PMS5003;33504;52.066;6.096;2022-11-15T07:23:17;39;37;
47741;PMS5003;33504;52.066;6.096;2022-11-15T07:25:44;39;38;
47741;PMS5003;33504;52.066;6.096;2022-11-15T07:28:11;42;41;
47741;PMS5003;33504;52.066;6.096;2022-11-15T07:30:38;44;41;
47741;PMS5003;33504;52.066;6.096;2022-11-15T07:33:06;42;41;
47741;PMS5003;33504;52.066;6.096;2022-11-15T07:35:32;40;38;
47741;PMS5003;33504;52.066;6.096;2022-11-15T07:38:00;40;40;
47741;PMS5003;33504;52.066;6.096;2022-11-15T07:40:29;40;39;
47741;PMS5003;33504;52.066;6.096;2022-11-15T07:42:59;42;39;
47741;PMS5003;33504;52.066;6.096;2022-11-15T07:45:27;42;41;
47741;PMS5003;33504;52.066;6.096;2022-11-15T07:47:55;44;42;
47741;PMS5003;33504;52.066;6.096;2022-11-15T07:50:23;36;35;
47741;PMS5003;33504;52.066;6.096;2022-11-15T07:52:55;38;36;
47741;PMS5003;33504;52.066;6.096;2022-11-15T07:55:24;38;38;
47741;PMS5003;33504;52.066;6.096;2022-11-15T07:57:52;28;28;
47741;PMS5003;33504;52.066;6.096;2022-11-15T08:00:20;34;34;
47741;PMS5003;33504;52.066;6.096;2022-11-15T08:02:47;38;36;
47741;PMS5003;33504;52.066;6.096;2022-11-15T08:05:14;34;33;
47741;PMS5003;33504;52.066;6.096;2022-11-15T08:07:41;34;33;
47741;PMS5003;33504;52.066;6.096;2022-11-15T08:10:08;31;30;
47741;PMS5003;33504;52.066;6.096;2022-11-15T08:12:35;34;33;
47741;PMS5003;33504;52.066;6.096;2022-11-15T08:15:02;32;31;
47741;PMS5003;33504;52.066;6.096;2022-11-15T08:17:30;36;35;
47741;PMS5003;33504;52.066;6.096;2022-11-15T08:19:57;33;31;
47741;PMS5003;33504;52.066;6.096;2022-11-15T08:22:24;30;30;
47741;PMS5003;33504;52.066;6.096;2022-11-15T08:24:51;33;32;
47741;PMS5003;33504;52.066;6.096;2022-11-15T08:27:18;29;29;
47741;PMS5003;33504;52.066;6.096;2022-11-15T08:29:47;36;35;
47741;PMS5003;33504;52.066;6.096;2022-11-15T08:32:14;36;36;
47741;PMS5003;33504;52.066;6.096;2022-11-15T08:34:41;37;34;
47741;PMS5003;33504;52.066;6.096;2022-11-15T08:37:08;34;34;
47741;PMS5003;33504;52.066;6.096;2022-11-15T08:39:36;36;35;
47741;PMS5003;33504;52.066;6.096;2022-11-15T08:42:03;28;28;
47741;PMS5003;33504;52.066;6.096;2022-11-15T08:44:30;33;32;
47741;PMS5003;33504;52.066;6.096;2022-11-15T08:46:57;27;26;
47741;PMS5003;33504;52.066;6.096;2022-11-15T08:49:24;30;28;
47741;PMS5003;33504;52.066;6.096;2022-11-15T08:51:51;32;30;
47741;PMS5003;33504;52.066;6.096;2022-11-15T08:54:19;28;27;
47741;PMS5003;33504;52.066;6.096;2022-11-15T08:56:45;26;26;
47741;PMS5003;33504;52.066;6.096;2022-11-15T08:59:13;33;32;
47741;PMS5003;33504;52.066;6.096;2022-11-15T09:01:40;30;27;
47741;PMS5003;33504;52.066;6.096;2022-11-15T09:04:07;30;29;
47741;PMS5003;33504;52.066;6.096;2022-11-15T09:06:35;27;25;
47741;PMS5003;33504;52.066;6.096;2022-11-15T09:09:02;30;30;
47741;PMS5003;33504;52.066;6.096;2022-11-15T09:11:30;30;29;
47741;PMS5003;33504;52.066;6.096;2022-11-15T09:13:57;34;32;
47741;PMS5003;33504;52.066;6.096;2022-11-15T09:16:24;29;28;
47741;PMS5003;33504;52.066;6.096;2022-11-15T09:18:52;24;24;
47741;PMS5003;33504;52.066;6.096;2022-11-15T09:21:19;27;26;
47741;PMS5003;33504;52.066;6.096;2022-11-15T09:23:49;27;24;
47741;PMS5003;33504;52.066;6.096;2022-11-15T09:26:17;28;27;
47741;PMS5003;33504;52.066;6.096;2022-11-15T09:28:45;26;25;
47741;PMS5003;33504;52.066;6.096;2022-11-15T09:31:12;23;23;
47741;PMS5003;33504;52.066;6.096;2022-11-15T09:33:42;23;22;
47741;PMS5003;33504;52.066;6.096;2022-11-15T09:36:10;22;21;
47741;PMS5003;33504;52.066;6.096;2022-11-15T09:38:37;22;22;
47741;PMS5003;33504;52.066;6.096;2022-11-15T09:41:13;23;21;
47741;PMS5003;33504;52.066;6.096;2022-11-15T09:43:54;18;18;
47741;PMS5003;33504;52.066;6.096;2022-11-15T09:46:35;22;21;
47741;PMS5003;33504;52.066;6.096;2022-11-15T09:49:10;24;23;
47741;PMS5003;33504;52.066;6.096;2022-11-15T09:51:43;19;18;
47741;PMS5003;33504;52.066;6.096;2022-11-15T09:54:15;22;22;
47741;PMS5003;33504;52.066;6.096;2022-11-15T09:56:48;18;16;
47741;PMS5003;33504;52.066;6.096;2022-11-15T09:59:20;20;19;
47741;PMS5003;33504;52.066;6.096;2022-11-15T10:01:56;28;26;
47741;PMS5003;33504;52.066;6.096;2022-11-15T10:04:29;16;15;
47741;PMS5003;33504;52.066;6.096;2022-11-15T10:07:00;22;21;
47741;PMS5003;33504;52.066;6.096;2022-11-15T10:09:34;24;22;
47741;PMS5003;33504;52.066;6.096;2022-11-15T10:12:06;19;19;
47741;PMS5003;33504;52.066;6.096;2022-11-15T10:14:34;18;18;
47741;PMS5003;33504;52.066;6.096;2022-11-15T10:17:06;18;18;
47741;PMS5003;33504;52.066;6.096;2022-11-15T10:19:47;19;19;
47741;PMS5003;33504;52.066;6.096;2022-11-15T10:22:24;19;18;
47741;PMS5003;33504;52.066;6.096;2022-11-15T10:25:00;16;15;
47741;PMS5003;33504;52.066;6.096;2022-11-15T10:27:40;16;15;
47741;PMS5003;33504;52.066;6.096;2022-11-15T10:30:11;15;15;
47741;PMS5003;33504;52.066;6.096;2022-11-15T10:32:41;15;14;
47741;PMS5003;33504;52.066;6.096;2022-11-15T10:35:18;15;13;
47741;PMS5003;33504;52.066;6.096;2022-11-15T10:37:48;16;15;
47741;PMS5003;33504;52.066;6.096;2022-11-15T10:40:17;14;14;
47741;PMS5003;33504;52.066;6.096;2022-11-15T10:42:46;17;17;
47741;PMS5003;33504;52.066;6.096;2022-11-15T10:45:30;11;11;
47741;PMS5003;33504;52.066;6.096;2022-11-15T10:48:30;17;17;
47741;PMS5003;33504;52.066;6.096;2022-11-15T10:50:58;14;13;
47741;PMS5003;33504;52.066;6.096;2022-11-15T10:53:27;10;10;
47741;PMS5003;33504;52.066;6.096;2022-11-15T10:56:00;11;11;
47741;PMS5003;33504;52.066;6.096;2022-11-15T10:58:34;10;10;
47741;PMS5003;33504;52.066;6.096;2022-11-15T11:01:08;9;9;
47741;PMS5003;33504;52.066;6.096;2022-11-15T11:03:37;11;10;
47741;PMS5003;33504;52.066;6.096;2022-11-15T11:06:07;8;8;
47741;PMS5003;33504;52.066;6.096;2022-11-15T11:08:36;9;9;
47741;PMS5003;33504;52.066;6.096;2022-11-15T11:11:04;9;8;
47741;PMS5003;33504;52.066;6.096;2022-11-15T11:13:33;11;10;
47741;PMS5003;33504;52.066;6.096;2022-11-15T11:16:14;8;8;
47741;PMS5003;33504;52.066;6.096;2022-11-15T11:18:51;5;5;
47741;PMS5003;33504;52.066;6.096;2022-11-15T11:21:32;8;7;
47741;PMS5003;33504;52.066;6.096;2022-11-15T11:24:10;6;6;
47741;PMS5003;33504;52.066;6.096;2022-11-15T11:26:46;6;6;
47741;PMS5003;33504;52.066;6.096;2022-11-15T11:29:26;7;6;
47741;PMS5003;33504;52.066;6.096;2022-11-15T11:32:07;6;5;
47741;PMS5003;33504;52.066;6.096;2022-11-15T11:34:59;5;4;
47741;PMS5003;33504;52.066;6.096;2022-11-15T11:37:37;8;7;
47741;PMS5003;33504;52.066;6.096;2022-11-15T11:40:16;6;6;
47741;PMS5003;33504;52.066;6.096;2022-11-15T11:42:53;3;3;
47741;PMS5003;33504;52.066;6.096;2022-11-15T11:45:40;7;7;
47741;PMS5003;33504;52.066;6.096;2022-11-15T11:48:20;4;4;
47741;PMS5003;33504;52.066;6.096;2022-11-15T11:51:01;3;3;
47741;PMS5003;33504;52.066;6.096;2022-11-15T11:53:35;3;3;
47741;PMS5003;33504;52.066;6.096;2022-11-15T11:56:10;4;4;
47741;PMS5003;33504;52.066;6.096;2022-11-15T11:58:43;4;4;
47741;PMS5003;33504;52.066;6.096;2022-11-15T12:01:13;4;4;
47741;PMS5003;33504;52.066;6.096;2022-11-15T12:03:45;5;5;
47741;PMS5003;33504;52.066;6.096;2022-11-15T12:06:19;4;3;
47741;PMS5003;33504;52.066;6.096;2022-11-15T12:08:53;5;5;
47741;PMS5003;33504;52.066;6.096;2022-11-15T12:11:28;4;4;
47741;PMS5003;33504;52.066;6.096;2022-11-15T12:14:03;12;11;
47741;PMS5003;33504;52.066;6.096;2022-11-15T12:16:51;3;3;
47741;PMS5003;33504;52.066;6.096;2022-11-15T12:19:18;4;4;
47741;PMS5003;33504;52.066;6.096;2022-11-15T12:21:45;4;4;
47741;PMS5003;33504;52.066;6.096;2022-11-15T12:24:20;18;18;
47741;PMS5003;33504;52.066;6.096;2022-11-15T12:26:53;2;2;
47741;PMS5003;33504;52.066;6.096;2022-11-15T12:29:27;4;4;
47741;PMS5003;33504;52.066;6.096;2022-11-15T12:32:00;4;4;
47741;PMS5003;33504;52.066;6.096;2022-11-15T12:34:30;2;2;
47741;PMS5003;33504;52.066;6.096;2022-11-15T12:37:32;3;2;
47741;PMS5003;33504;52.066;6.096;2022-11-15T12:40:17;1;1;
47741;PMS5003;33504;52.066;6.096;2022-11-15T12:43:36;19;18;
47741;PMS5003;33504;52.066;6.096;2022-11-15T12:46:10;8;8;
47741;PMS5003;33504;52.066;6.096;2022-11-15T12:48:46;9;9;
47741;PMS5003;33504;52.066;6.096;2022-11-15T12:51:15;5;4;
47741;PMS5003;33504;52.066;6.096;2022-11-15T12:53:43;4;3;
47741;PMS5003;33504;52.066;6.096;2022-11-15T12:56:18;9;9;
47741;PMS5003;33504;52.066;6.096;2022-11-15T12:58:48;4;3;
47741;PMS5003;33504;52.066;6.096;2022-11-15T13:01:53;2;2;
47741;PMS5003;33504;52.066;6.096;2022-11-15T13:04:25;4;3;
47741;PMS5003;33504;52.066;6.096;2022-11-15T13:06:55;3;3;
47741;PMS5003;33504;52.066;6.096;2022-11-15T13:09:56;2;2;
47741;PMS5003;33504;52.066;6.096;2022-11-15T13:12:57;2;2;
47741;PMS5003;33504;52.066;6.096;2022-11-15T13:15:33;1;1;
47741;PMS5003;33504;52.066;6.096;2022-11-15T13:18:28;2;2;
47741;PMS5003;33504;52.066;6.096;2022-11-15T13:20:58;3;2;
47741;PMS5003;33504;52.066;6.096;2022-11-15T13:23:25;5;2;
47741;PMS5003;33504;52.066;6.096;2022-11-15T13:26:03;2;1;
47741;PMS5003;33504;52.066;6.096;2022-11-15T13:28:37;3;3;
47741;PMS5003;33504;52.066;6.096;2022-11-15T13:31:19;4;4;
47741;PMS5003;33504;52.066;6.096;2022-11-15T13:33:51;4;4;
47741;PMS5003;33504;52.066;6.096;2022-11-15T13:36:20;23;22;
47741;PMS5003;33504;52.066;6.096;2022-11-15T13:38:58;27;27;
47741;PMS5003;33504;52.066;6.096;2022-11-15T13:41:27;9;8;
47741;PMS5003;33504;52.066;6.096;2022-11-15T13:43:57;29;29;
47741;PMS5003;33504;52.066;6.096;2022-11-15T13:46:26;8;8;
47741;PMS5003;33504;52.066;6.096;2022-11-15T13:48:55;36;36;
47741;PMS5003;33504;52.066;6.096;2022-11-15T13:51:26;39;39;
47741;PMS5003;33504;52.066;6.096;2022-11-15T13:53:58;6;6;
47741;PMS5003;33504;52.066;6.096;2022-11-15T13:56:31;18;18;
47741;PMS5003;33504;52.066;6.096;2022-11-15T13:58:59;39;39;
47741;PMS5003;33504;52.066;6.096;2022-11-15T14:01:28;24;24;
47741;PMS5003;33504;52.066;6.096;2022-11-15T14:03:58;46;46;
47741;PMS5003;33504;52.066;6.096;2022-11-15T14:06:27;17;17;
47741;PMS5003;33504;52.066;6.096;2022-11-15T14:09:24;22;21;
47741;PMS5003;33504;52.066;6.096;2022-11-15T14:12:02;37;37;
47741;PMS5003;33504;52.066;6.096;2022-11-15T14:14:48;10;9;
47741;PMS5003;33504;52.066;6.096;2022-11-15T14:17:19;5;5;
47741;PMS5003;33504;52.066;6.096;2022-11-15T14:19:47;5;5;
47741;PMS5003;33504;52.066;6.096;2022-11-15T14:22:15;6;6;
47741;PMS5003;33504;52.066;6.096;2022-11-15T14:24:45;5;5;
47741;PMS5003;33504;52.066;6.096;2022-11-15T14:27:17;5;5;
47741;PMS5003;33504;52.066;6.096;2022-11-15T14:29:46;5;5;
47741;PMS5003;33504;52.066;6.096;2022-11-15T14:32:14;6;6;
47741;PMS5003;33504;52.066;6.096;2022-11-15T14:34:43;7;6;
47741;PMS5003;33504;52.066;6.096;2022-11-15T14:37:18;6;6;
47741;PMS5003;33504;52.066;6.096;2022-11-15T14:39:47;6;6;
47741;PMS5003;33504;52.066;6.096;2022-11-15T14:42:14;7;7;
47741;PMS5003;33504;52.066;6.096;2022-11-15T14:44:42;8;8;
47741;PMS5003;33504;52.066;6.096;2022-11-15T14:47:10;4;3;
47741;PMS5003;33504;52.066;6.096;2022-11-15T14:49:36;7;4;
47741;PMS5003;33504;52.066;6.096;2022-11-15T14:52:07;7;6;
47741;PMS5003;33504;52.066;6.096;2022-11-15T14:54:44;5;5;
47741;PMS5003;33504;52.066;6.096;2022-11-15T14:57:10;4;4;
47741;PMS5003;33504;52.066;6.096;2022-11-15T14:59:37;5;5;
47741;PMS5003;33504;52.066;6.096;2022-11-15T15:02:08;4;4;
47741;PMS5003;33504;52.066;6.096;2022-11-15T15:04:41;4;4;
47741;PMS5003;33504;52.066;6.096;2022-11-15T15:07:08;4;3;
47741;PMS5003;33504;52.066;6.096;2022-11-15T15:09:34;5;4;
47741;PMS5003;33504;52.066;6.096;2022-11-15T15:12:01;6;5;
47741;PMS5003;33504;52.066;6.096;2022-11-15T15:14:29;5;5;
47741;PMS5003;33504;52.066;6.096;2022-11-15T15:16:55;5;5;
47741;PMS5003;33504;52.066;6.096;2022-11-15T15:19:22;5;4;
47741;PMS5003;33504;52.066;6.096;2022-11-15T15:21:49;8;6;
47741;PMS5003;33504;52.066;6.096;2022-11-15T15:24:15;3;3;
47741;PMS5003;33504;52.066;6.096;2022-11-15T15:26:42;6;6;
47741;PMS5003;33504;52.066;6.096;2022-11-15T15:29:09;6;5;
47741;PMS5003;33504;52.066;6.096;2022-11-15T15:31:36;6;5;
47741;PMS5003;33504;52.066;6.096;2022-11-15T15:34:02;7;7;
47741;PMS5003;33504;52.066;6.096;2022-11-15T15:36:30;7;5;
47741;PMS5003;33504;52.066;6.096;2022-11-15T15:38:57;7;6;
47741;PMS5003;33504;52.066;6.096;2022-11-15T15:41:24;7;7;
47741;PMS5003;33504;52.066;6.096;2022-11-15T15:43:51;7;7;
47741;PMS5003;33504;52.066;6.096;2022-11-15T15:46:18;9;7;
47741;PMS5003;33504;52.066;6.096;2022-11-15T15:48:46;6;6;
47741;PMS5003;33504;52.066;6.096;2022-11-15T15:51:14;6;5;
47741;PMS5003;33504;52.066;6.096;2022-11-15T15:53:40;6;6;
47741;PMS5003;33504;52.066;6.096;2022-11-15T15:56:13;5;5;
47741;PMS5003;33504;52.066;6.096;2022-11-15T15:58:40;6;6;
47741;PMS5003;33504;52.066;6.096;2022-11-15T16:01:07;7;6;
47741;PMS5003;33504;52.066;6.096;2022-11-15T16:03:34;7;6;
47741;PMS5003;33504;52.066;6.096;2022-11-15T16:06:01;7;6;
47741;PMS5003;33504;52.066;6.096;2022-11-15T16:08:29;6;5;
47741;PMS5003;33504;52.066;6.096;2022-11-15T16:10:55;5;4;
47741;PMS5003;33504;52.066;6.096;2022-11-15T16:13:22;6;6;
47741;PMS5003;33504;52.066;6.096;2022-11-15T16:15:50;5;4;
47741;PMS5003;33504;52.066;6.096;2022-11-15T16:18:21;6;6;
47741;PMS5003;33504;52.066;6.096;2022-11-15T16:20:49;6;6;
47741;PMS5003;33504;52.066;6.096;2022-11-15T16:23:17;11;9;
47741;PMS5003;33504;52.066;6.096;2022-11-15T16:25:46;11;8;
47741;PMS5003;33504;52.066;6.096;2022-11-15T16:28:16;10;8;
47741;PMS5003;33504;52.066;6.096;2022-11-15T16:30:46;12;11;
47741;PMS5003;33504;52.066;6.096;2022-11-15T16:33:13;12;12;
47741;PMS5003;33504;52.066;6.096;2022-11-15T16:35:41;9;9;
47741;PMS5003;33504;52.066;6.096;2022-11-15T16:38:13;8;7;
47741;PMS5003;33504;52.066;6.096;2022-11-15T16:40:46;8;7;
47741;PMS5003;33504;52.066;6.096;2022-11-15T16:43:17;6;6;
47741;PMS5003;33504;52.066;6.096;2022-11-15T16:45:53;7;6;
47741;PMS5003;33504;52.066;6.096;2022-11-15T16:48:34;4;4;
47741;PMS5003;33504;52.066;6.096;2022-11-15T16:51:08;5;5;